createdAt,value
2022-08-29T00:00:58.903Z,14.80
2022-08-29T00:03:25.734Z,14.70
2022-08-29T00:05:53.194Z,14.70
2022-08-29T00:08:21.653Z,14.70
2022-08-29T00:10:48.679Z,14.60
2022-08-29T00:13:15.736Z,14.60
2022-08-29T00:15:45.089Z,14.60
2022-08-29T00:18:13.960Z,14.60
2022-08-29T00:20:41.826Z,14.50
2022-08-29T00:23:09.389Z,14.50
2022-08-29T00:25:36.534Z,14.40
2022-08-29T00:28:03.857Z,14.40
2022-08-29T00:30:32.102Z,14.40
2022-08-29T00:32:59.115Z,14.40
2022-08-29T00:35:29.133Z,14.40
2022-08-29T00:37:56.507Z,14.40
2022-08-29T00:40:33.246Z,14.40
2022-08-29T00:43:00.136Z,14.30
2022-08-29T00:45:27.671Z,14.30
2022-08-29T00:47:58.761Z,14.30
2022-08-29T00:50:34.209Z,14.30
2022-08-29T00:53:03.768Z,14.20
2022-08-29T00:55:34.445Z,14.20
2022-08-29T00:58:20.955Z,14.20
2022-08-29T01:00:49.211Z,14.20
2022-08-29T01:03:16.046Z,14.20
2022-08-29T01:05:43.050Z,14.30
2022-08-29T01:08:09.951Z,14.30
2022-08-29T01:10:56.257Z,14.30
2022-08-29T01:13:29.717Z,14.30
2022-08-29T01:15:57.272Z,14.20
2022-08-29T01:18:26.418Z,14.20
2022-08-29T01:21:17.170Z,14.20
2022-08-29T01:23:50.134Z,14.20
2022-08-29T01:26:16.980Z,14.20
2022-08-29T01:28:47.192Z,14.20
2022-08-29T01:31:42.182Z,14.10
2022-08-29T01:34:15.626Z,14.10
2022-08-29T01:36:47.286Z,14.10
2022-08-29T01:39:14.357Z,14.00
2022-08-29T01:41:42.345Z,14.00
2022-08-29T01:44:19.077Z,14.00
2022-08-29T01:46:47.839Z,13.90
2022-08-29T01:49:16.315Z,13.90
2022-08-29T01:51:43.385Z,13.80
2022-08-29T01:54:11.429Z,13.80
2022-08-29T01:56:42.878Z,13.80
2022-08-29T01:59:12.386Z,13.80
2022-08-29T02:01:43.781Z,13.80
2022-08-29T02:04:10.699Z,13.80
2022-08-29T02:06:38.027Z,13.80
2022-08-29T02:09:06.192Z,13.80
2022-08-29T02:11:33.300Z,13.80
2022-08-29T02:14:00.179Z,13.80
2022-08-29T02:16:28.542Z,13.80
2022-08-29T02:18:56.064Z,13.80
2022-08-29T02:21:25.445Z,13.80
2022-08-29T02:23:53.357Z,13.80
2022-08-29T02:26:22.086Z,13.80
2022-08-29T02:28:50.627Z,13.80
2022-08-29T02:31:19.035Z,13.80
2022-08-29T02:33:46.811Z,13.80
2022-08-29T02:36:14.044Z,13.80
2022-08-29T02:38:41.074Z,13.80
2022-08-29T02:41:12.379Z,13.80
2022-08-29T02:43:41.121Z,13.80
2022-08-29T02:46:08.213Z,13.80
2022-08-29T02:48:35.115Z,13.80
2022-08-29T02:51:01.920Z,13.80
2022-08-29T02:53:31.208Z,13.80
2022-08-29T02:55:58.648Z,13.80
2022-08-29T02:58:26.008Z,13.80
2022-08-29T03:00:54.055Z,13.80
2022-08-29T03:03:21.102Z,13.80
2022-08-29T03:05:48.134Z,13.90
2022-08-29T03:08:15.320Z,13.90
2022-08-29T03:10:43.475Z,13.90
2022-08-29T03:13:11.345Z,13.90
2022-08-29T03:15:38.924Z,14.00
2022-08-29T03:18:06.223Z,14.00
2022-08-29T03:20:36.548Z,14.00
2022-08-29T03:23:04.165Z,14.10
2022-08-29T03:25:31.752Z,14.00
2022-08-29T03:27:59.693Z,14.10
2022-08-29T03:33:02.456Z,14.10
2022-08-29T03:35:29.288Z,14.10
2022-08-29T03:37:56.606Z,14.10
2022-08-29T03:40:24.693Z,14.10
2022-08-29T03:42:52.661Z,14.00
2022-08-29T03:45:21.322Z,14.10
2022-08-29T03:47:48.309Z,14.00
2022-08-29T03:50:17.417Z,14.00
2022-08-29T03:52:44.655Z,14.00
2022-08-29T03:55:12.999Z,14.00
2022-08-29T03:57:40.161Z,14.00
2022-08-29T04:00:13.486Z,14.00
2022-08-29T04:02:40.782Z,14.00
2022-08-29T04:05:09.980Z,14.00
2022-08-29T04:07:47.774Z,14.00
2022-08-29T04:10:19.902Z,14.00
2022-08-29T04:12:49.194Z,14.00
2022-08-29T04:15:19.878Z,13.90
2022-08-29T04:17:52.905Z,13.90
2022-08-29T04:20:24.796Z,13.90
2022-08-29T04:22:54.292Z,13.80
2022-08-29T04:25:25.073Z,13.80
2022-08-29T04:27:52.947Z,13.80
2022-08-29T04:30:22.598Z,13.70
2022-08-29T04:32:49.578Z,13.80
2022-08-29T04:35:17.078Z,13.70
2022-08-29T04:37:44.473Z,13.70
2022-08-29T04:40:15.845Z,13.70
2022-08-29T04:42:43.572Z,13.70
2022-08-29T04:45:16.551Z,13.70
2022-08-29T04:47:44.299Z,13.60
2022-08-29T04:50:15.007Z,13.70
2022-08-29T04:52:42.791Z,13.70
2022-08-29T04:55:10.631Z,13.60
2022-08-29T04:57:38.254Z,13.60
2022-08-29T05:00:08.718Z,13.60
2022-08-29T05:02:35.527Z,13.60
2022-08-29T05:05:02.503Z,13.60
2022-08-29T05:07:29.253Z,13.60
2022-08-29T05:09:58.837Z,13.60
2022-08-29T05:12:27.349Z,13.60
2022-08-29T05:14:54.724Z,13.60
2022-08-29T05:17:22.475Z,13.60
2022-08-29T05:19:49.700Z,13.60
2022-08-29T05:22:17.786Z,13.60
2022-08-29T05:24:44.752Z,13.60
2022-08-29T05:27:14.843Z,13.70
2022-08-29T05:29:43.360Z,13.60
2022-08-29T05:32:11.866Z,13.70
2022-08-29T05:34:39.493Z,13.80
2022-08-29T05:37:09.913Z,13.80
2022-08-29T05:39:38.876Z,13.80
2022-08-29T05:42:07.258Z,13.90
2022-08-29T05:44:35.924Z,13.90
2022-08-29T05:47:08.148Z,14.00
2022-08-29T05:49:39.180Z,14.00
2022-08-29T05:52:07.244Z,14.10
2022-08-29T05:54:36.784Z,14.10
2022-08-29T05:57:04.776Z,14.20
2022-08-29T05:59:31.580Z,14.30
2022-08-29T06:01:58.594Z,14.40
2022-08-29T06:04:25.541Z,14.40
2022-08-29T06:06:52.393Z,14.40
2022-08-29T06:09:19.251Z,14.50
2022-08-29T06:11:48.384Z,14.50
2022-08-29T06:14:16.754Z,14.60
2022-08-29T06:16:43.771Z,14.60
2022-08-29T06:19:10.821Z,14.60
2022-08-29T06:21:38.401Z,14.70
2022-08-29T06:24:06.139Z,14.80
2022-08-29T06:26:33.201Z,14.90
2022-08-29T06:29:00.292Z,14.90
2022-08-29T06:31:29.407Z,15.10
2022-08-29T06:33:59.494Z,15.10
2022-08-29T06:36:27.564Z,15.20
2022-08-29T06:38:59.245Z,15.30
2022-08-29T06:41:27.214Z,15.30
2022-08-29T06:43:55.785Z,15.30
2022-08-29T06:46:38.656Z,15.40
2022-08-29T06:49:08.598Z,15.50
2022-08-29T06:51:37.441Z,15.60
2022-08-29T06:54:07.171Z,15.60
2022-08-29T06:56:36.677Z,15.70
2022-08-29T06:59:05.893Z,15.80
2022-08-29T07:01:33.485Z,15.80
2022-08-29T07:04:03.269Z,15.80
2022-08-29T07:06:31.254Z,15.80
2022-08-29T07:08:58.856Z,15.90
2022-08-29T07:11:28.144Z,16.00
2022-08-29T07:13:57.730Z,16.10
2022-08-29T07:16:26.326Z,16.30
2022-08-29T07:18:54.027Z,16.50
2022-08-29T07:21:23.636Z,16.50
2022-08-29T07:23:52.090Z,16.60
2022-08-29T07:26:21.925Z,16.60
2022-08-29T07:28:50.806Z,16.60
2022-08-29T07:31:18.223Z,16.60
2022-08-29T07:33:45.185Z,16.60
2022-08-29T07:36:12.571Z,16.60
2022-08-29T07:38:39.625Z,16.70
2022-08-29T07:41:14.418Z,16.70
2022-08-29T07:43:43.005Z,16.80
2022-08-29T07:46:12.137Z,16.90
2022-08-29T07:48:39.767Z,16.90
2022-08-29T07:51:11.845Z,17.00
2022-08-29T07:53:40.232Z,17.10
2022-08-29T07:56:09.578Z,17.30
2022-08-29T07:58:37.380Z,17.30
2022-08-29T08:01:04.964Z,17.20
2022-08-29T08:03:32.892Z,17.20
2022-08-29T08:06:00.110Z,17.20
2022-08-29T08:08:31.393Z,17.10
2022-08-29T08:10:58.217Z,17.10
2022-08-29T08:13:25.192Z,17.10
2022-08-29T08:15:51.941Z,17.20
2022-08-29T08:18:18.754Z,17.20
2022-08-29T08:20:48.391Z,17.20
2022-08-29T08:23:19.208Z,17.20
2022-08-29T08:25:46.282Z,17.30
2022-08-29T08:28:14.228Z,17.40
2022-08-29T08:30:41.827Z,17.50
2022-08-29T08:33:09.570Z,17.50
2022-08-29T08:35:41.924Z,17.60
2022-08-29T08:38:10.251Z,17.70
2022-08-29T08:40:50.656Z,17.80
2022-08-29T08:43:26.921Z,17.90
2022-08-29T08:45:57.306Z,18.00
2022-08-29T08:48:40.038Z,18.10
2022-08-29T08:51:14.898Z,18.20
2022-08-29T08:53:45.822Z,18.30
2022-08-29T08:56:33.921Z,18.50
2022-08-29T08:59:07.490Z,18.60
2022-08-29T09:01:42.999Z,18.80
2022-08-29T09:04:37.322Z,18.80
2022-08-29T09:07:22.850Z,19.00
2022-08-29T09:10:22.119Z,19.10
2022-08-29T09:12:54.707Z,19.30
2022-08-29T09:15:25.933Z,19.40
2022-08-29T09:17:58.445Z,19.60
2022-08-29T09:20:31.244Z,19.80
2022-08-29T09:23:05.845Z,19.90
2022-08-29T09:25:36.272Z,20.10
2022-08-29T09:28:06.669Z,20.30
2022-08-29T09:30:36.510Z,20.40
2022-08-29T09:33:09.488Z,20.50
2022-08-29T09:35:40.736Z,20.70
2022-08-29T09:40:51.333Z,21.00
2022-08-29T09:43:25.761Z,21.30
2022-08-29T09:46:25.800Z,21.40
2022-08-29T09:49:11.713Z,21.70
2022-08-29T09:51:49.376Z,21.90
2022-08-29T09:54:19.203Z,22.10
2022-08-29T09:56:58.610Z,22.30
2022-08-29T09:59:39.741Z,22.40
2022-08-29T10:02:22.297Z,22.50
2022-08-29T10:04:56.621Z,22.80
2022-08-29T10:07:33.161Z,23.00
2022-08-29T10:10:07.712Z,23.30
2022-08-29T10:12:47.082Z,23.50
2022-08-29T10:15:48.854Z,23.70
2022-08-29T10:18:28.677Z,23.80
2022-08-29T10:21:13.193Z,24.00
2022-08-29T10:24:01.422Z,24.00
2022-08-29T10:26:56.069Z,24.00
2022-08-29T10:29:40.651Z,24.20
2022-08-29T10:32:38.308Z,24.20
2022-08-29T10:35:37.034Z,24.40
2022-08-29T10:38:15.847Z,24.80
2022-08-29T10:41:02.648Z,25.00
2022-08-29T10:43:32.333Z,25.20
2022-08-29T10:46:33.028Z,25.20
2022-08-29T10:49:02.767Z,25.50
2022-08-29T10:51:49.763Z,25.80
2022-08-29T10:54:46.265Z,26.10
2022-08-29T10:57:23.822Z,26.20
2022-08-29T11:00:21.885Z,26.20
2022-08-29T11:03:08.797Z,26.30
2022-08-29T11:05:49.348Z,26.50
2022-08-29T11:08:33.529Z,26.70
2022-08-29T11:11:01.558Z,26.70
2022-08-29T11:13:40.485Z,26.50
2022-08-29T11:16:15.351Z,26.60
2022-08-29T11:18:48.474Z,26.80
2022-08-29T11:21:33.739Z,26.90
2022-08-29T11:24:04.229Z,27.10
2022-08-29T11:26:33.961Z,27.20
2022-08-29T11:29:27.850Z,27.40
2022-08-29T11:32:18.579Z,27.40
2022-08-29T11:35:10.060Z,27.40
2022-08-29T11:38:15.880Z,26.90
2022-08-29T11:41:28.374Z,26.50
2022-08-29T11:44:03.291Z,26.10
2022-08-29T11:46:43.611Z,25.50
2022-08-29T11:49:34.238Z,25.30
2022-08-29T11:52:13.061Z,25.20
2022-08-29T11:54:40.077Z,25.10
2022-08-29T11:57:09.613Z,25.00
2022-08-29T11:59:51.357Z,24.90
2022-08-29T12:02:33.199Z,24.80
2022-08-29T12:05:04.469Z,24.80
2022-08-29T12:07:39.959Z,25.00
2022-08-29T12:10:26.584Z,24.90
2022-08-29T12:13:02.280Z,24.80
2022-08-29T12:15:40.808Z,25.20
2022-08-29T12:18:27.490Z,25.60
2022-08-29T12:20:55.777Z,26.10
2022-08-29T12:23:36.507Z,26.30
2022-08-29T12:26:52.557Z,26.60
2022-08-29T12:29:27.242Z,26.90
2022-08-29T12:32:22.450Z,27.20
2022-08-29T12:35:19.937Z,27.30
2022-08-29T12:37:52.442Z,27.00
2022-08-29T12:40:38.164Z,26.50
2022-08-29T12:43:25.433Z,26.10
2022-08-29T12:45:53.580Z,25.60
2022-08-29T12:48:31.633Z,25.30
2022-08-29T12:50:58.548Z,25.10
2022-08-29T12:53:33.403Z,25.10
2022-08-29T12:56:12.181Z,25.10
2022-08-29T12:58:46.611Z,25.00
2022-08-29T13:01:25.333Z,24.70
2022-08-29T13:03:57.614Z,24.80
2022-08-29T13:06:24.653Z,25.00
2022-08-29T13:08:51.524Z,25.20
2022-08-29T13:11:27.393Z,25.60
2022-08-29T13:14:10.600Z,25.70
2022-08-29T13:16:42.398Z,25.90
2022-08-29T13:19:22.205Z,26.10
2022-08-29T13:21:49.041Z,26.20
2022-08-29T13:24:20.786Z,26.30
2022-08-29T13:27:02.969Z,26.40
2022-08-29T13:29:40.560Z,26.60
2022-08-29T13:32:23.193Z,26.30
2022-08-29T13:35:21.558Z,26.30
2022-08-29T13:38:09.614Z,26.40
2022-08-29T13:40:47.905Z,26.30
2022-08-29T13:43:43.256Z,26.30
2022-08-29T13:46:18.396Z,26.10
2022-08-29T13:48:45.279Z,26.10
2022-08-29T13:51:12.420Z,26.00
2022-08-29T13:53:39.657Z,26.00
2022-08-29T13:56:22.184Z,26.20
2022-08-29T13:58:49.859Z,26.30
2022-08-29T14:01:30.313Z,26.30
2022-08-29T14:04:01.279Z,25.90
2022-08-29T14:06:34.000Z,25.60
2022-08-29T14:09:01.870Z,25.50
2022-08-29T14:11:29.154Z,25.40
2022-08-29T14:13:56.817Z,25.30
2022-08-29T14:16:25.343Z,25.30
2022-08-29T14:18:53.989Z,25.20
2022-08-29T14:21:21.006Z,25.30
2022-08-29T14:23:48.867Z,25.40
2022-08-29T14:26:16.017Z,25.80
2022-08-29T14:28:47.985Z,26.10
2022-08-29T14:31:15.669Z,26.30
2022-08-29T14:33:42.750Z,26.40
2022-08-29T14:36:12.129Z,26.40
2022-08-29T14:38:39.145Z,26.50
2022-08-29T14:41:06.231Z,26.50
2022-08-29T14:43:36.512Z,26.40
2022-08-29T14:46:07.226Z,26.30
2022-08-29T14:48:34.507Z,26.10
2022-08-29T14:51:01.859Z,25.80
2022-08-29T14:53:29.535Z,25.60
2022-08-29T14:55:57.383Z,25.70
2022-08-29T14:58:24.596Z,25.80
2022-08-29T15:00:51.809Z,25.90
2022-08-29T15:03:21.824Z,25.80
2022-08-29T15:05:50.605Z,25.90
2022-08-29T15:08:19.101Z,26.00
2022-08-29T15:10:46.532Z,26.10
2022-08-29T15:13:13.547Z,26.20
2022-08-29T15:15:40.650Z,26.20
2022-08-29T15:18:07.915Z,26.10
2022-08-29T15:20:37.333Z,26.10
2022-08-29T15:23:05.294Z,26.30
2022-08-29T15:25:32.814Z,26.20
2022-08-29T15:28:00.118Z,26.30
2022-08-29T15:30:27.174Z,26.20
2022-08-29T15:32:54.262Z,26.20
2022-08-29T15:35:21.213Z,26.30
2022-08-29T15:37:48.416Z,26.20
2022-08-29T15:40:15.759Z,26.10
2022-08-29T15:42:42.788Z,26.00
2022-08-29T15:45:10.754Z,26.10
2022-08-29T15:47:39.485Z,26.10
2022-08-29T15:50:08.272Z,26.20
2022-08-29T15:52:36.482Z,26.20
2022-08-29T15:55:05.715Z,26.10
2022-08-29T15:57:32.834Z,26.20
2022-08-29T15:59:59.765Z,26.10
2022-08-29T16:02:28.008Z,26.00
2022-08-29T16:04:57.185Z,25.90
2022-08-29T16:07:28.825Z,25.80
2022-08-29T16:10:00.665Z,25.80
2022-08-29T16:12:28.915Z,25.70
2022-08-29T16:15:00.100Z,25.50
2022-08-29T16:17:29.789Z,25.30
2022-08-29T16:19:58.124Z,25.20
2022-08-29T16:22:27.704Z,25.00
2022-08-29T16:24:55.271Z,24.80
2022-08-29T16:27:24.173Z,24.80
2022-08-29T16:29:54.922Z,24.70
2022-08-29T16:32:21.842Z,24.70
2022-08-29T16:34:48.680Z,24.60
2022-08-29T16:37:15.700Z,24.60
2022-08-29T16:39:42.540Z,24.60
2022-08-29T16:42:12.102Z,24.60
2022-08-29T16:44:39.789Z,24.50
2022-08-29T16:47:06.617Z,24.40
2022-08-29T16:49:33.898Z,24.20
2022-08-29T16:52:00.887Z,24.00
2022-08-29T16:54:28.649Z,23.80
2022-08-29T16:56:57.042Z,23.80
2022-08-29T16:59:24.164Z,23.80
2022-08-29T17:01:53.485Z,23.60
2022-08-29T17:04:23.747Z,23.60
2022-08-29T17:06:51.965Z,23.60
2022-08-29T17:09:21.101Z,23.50
2022-08-29T17:11:48.052Z,23.50
2022-08-29T17:14:16.539Z,23.50
2022-08-29T17:16:45.919Z,23.40
2022-08-29T17:19:14.416Z,23.40
2022-08-29T17:21:41.786Z,23.30
2022-08-29T17:24:09.359Z,23.20
2022-08-29T17:26:40.715Z,23.10
2022-08-29T17:29:08.712Z,22.90
2022-08-29T17:31:38.631Z,22.80
2022-08-29T17:34:08.256Z,22.60
2022-08-29T17:36:36.811Z,22.50
2022-08-29T17:39:05.467Z,22.30
2022-08-29T17:41:33.049Z,22.30
2022-08-29T17:44:29.700Z,22.10
2022-08-29T17:46:58.220Z,22.00
2022-08-29T17:49:27.117Z,21.90
2022-08-29T17:51:54.750Z,21.80
2022-08-29T17:54:23.874Z,21.60
2022-08-29T17:57:03.322Z,21.50
2022-08-29T17:59:36.174Z,21.50
2022-08-29T18:02:05.289Z,21.40
2022-08-29T18:04:32.552Z,21.30
2022-08-29T18:06:59.469Z,21.20
2022-08-29T18:09:26.672Z,21.10
2022-08-29T18:11:54.866Z,21.10
2022-08-29T18:14:23.796Z,20.90
2022-08-29T18:16:51.914Z,20.90
2022-08-29T18:19:20.023Z,20.80
2022-08-29T18:21:47.023Z,20.70
2022-08-29T18:24:15.085Z,20.60
2022-08-29T18:26:43.644Z,20.50
2022-08-29T18:29:10.934Z,20.40
2022-08-29T18:31:37.835Z,20.30
2022-08-29T18:34:05.055Z,20.30
2022-08-29T18:36:34.740Z,20.20
2022-08-29T18:39:06.206Z,20.10
2022-08-29T18:41:33.610Z,20.00
2022-08-29T18:44:00.586Z,19.90
2022-08-29T18:46:28.569Z,19.80
2022-08-29T18:48:55.737Z,19.80
2022-08-29T18:51:23.170Z,19.70
2022-08-29T18:53:50.217Z,19.60
2022-08-29T18:56:17.046Z,19.60
2022-08-29T18:58:46.620Z,19.50
2022-08-29T19:01:14.998Z,19.40
2022-08-29T19:03:42.022Z,19.40
2022-08-29T19:06:08.866Z,19.30
2022-08-29T19:08:36.870Z,19.30
2022-08-29T19:11:06.731Z,19.20
2022-08-29T19:13:37.523Z,19.10
2022-08-29T19:16:07.968Z,19.10
2022-08-29T19:18:35.475Z,19.00
2022-08-29T19:21:02.446Z,18.90
2022-08-29T19:23:52.650Z,18.90
2022-08-29T19:26:24.057Z,18.90
2022-08-29T19:28:53.081Z,18.80
2022-08-29T19:31:22.948Z,18.80
2022-08-29T19:33:49.778Z,18.60
2022-08-29T19:36:17.650Z,18.60
2022-08-29T19:38:44.514Z,18.60
2022-08-29T19:41:12.520Z,18.50
2022-08-29T19:43:40.999Z,18.50
2022-08-29T19:46:14.557Z,18.40
2022-08-29T19:48:43.935Z,18.30
2022-08-29T19:51:12.947Z,18.30
2022-08-29T19:53:41.508Z,18.20
2022-08-29T19:56:09.129Z,18.20
2022-08-29T19:58:37.791Z,18.10
2022-08-29T20:01:07.145Z,18.10
2022-08-29T20:03:36.862Z,18.00
2022-08-29T20:06:06.999Z,18.00
2022-08-29T20:08:43.689Z,17.90
2022-08-29T20:11:16.098Z,17.90
2022-08-29T20:13:50.531Z,17.90
2022-08-29T20:16:20.699Z,17.80
2022-08-29T20:18:48.765Z,17.80
2022-08-29T20:21:17.104Z,17.80
2022-08-29T20:23:49.531Z,17.70
2022-08-29T20:26:18.922Z,17.70
2022-08-29T20:28:45.780Z,17.60
2022-08-29T20:31:12.950Z,17.60
2022-08-29T20:33:41.448Z,17.60
2022-08-29T20:36:27.188Z,17.60
2022-08-29T20:38:54.365Z,17.50
2022-08-29T20:41:21.784Z,17.50
2022-08-29T20:43:48.725Z,17.40
2022-08-29T20:46:15.545Z,17.40
2022-08-29T20:48:42.394Z,17.40
2022-08-29T20:51:10.409Z,17.30
2022-08-29T20:53:38.301Z,17.30
2022-08-29T20:56:05.578Z,17.30
2022-08-29T20:58:32.566Z,17.30
2022-08-29T21:01:00.836Z,17.20
2022-08-29T21:03:46.321Z,17.20
2022-08-29T21:06:13.185Z,17.10
2022-08-29T21:08:41.068Z,17.10
2022-08-29T21:11:08.344Z,17.00
2022-08-29T21:13:35.081Z,17.00
2022-08-29T21:16:04.592Z,16.90
2022-08-29T21:18:31.573Z,16.90
2022-08-29T21:20:58.422Z,16.80
2022-08-29T21:23:25.655Z,16.80
2022-08-29T21:25:57.667Z,16.70
2022-08-29T21:28:25.534Z,16.70
2022-08-29T21:30:53.051Z,16.70
2022-08-29T21:33:20.950Z,16.60
2022-08-29T21:35:49.940Z,16.60
2022-08-29T21:38:17.769Z,16.60
2022-08-29T21:40:51.348Z,16.50
2022-08-29T21:43:19.575Z,16.50
2022-08-29T21:45:47.233Z,16.50
2022-08-29T21:48:14.047Z,16.40
2022-08-29T21:50:40.854Z,16.40
2022-08-29T21:53:07.659Z,16.40
2022-08-29T21:55:34.494Z,16.30
2022-08-29T21:58:01.918Z,16.30
2022-08-29T22:00:35.605Z,16.20
2022-08-29T22:03:05.883Z,16.20
2022-08-29T22:05:32.928Z,16.10
2022-08-29T22:08:03.226Z,16.00
2022-08-29T22:10:33.396Z,16.00
2022-08-29T22:13:01.063Z,16.00
2022-08-29T22:15:46.486Z,16.00
2022-08-29T22:18:16.693Z,15.90
2022-08-29T22:20:46.571Z,15.90
2022-08-29T22:23:15.716Z,15.90
2022-08-29T22:25:47.058Z,15.80
2022-08-29T22:28:13.894Z,15.70
2022-08-29T22:30:40.786Z,15.70
2022-08-29T22:33:08.884Z,15.70
2022-08-29T22:35:43.080Z,15.60
2022-08-29T22:38:09.866Z,15.60
2022-08-29T22:40:36.797Z,15.50
2022-08-29T22:43:03.846Z,15.50
2022-08-29T22:45:30.704Z,15.40
2022-08-29T22:47:57.842Z,15.40
2022-08-29T22:50:25.494Z,15.40
2022-08-29T22:52:56.631Z,15.40
2022-08-29T22:57:49.686Z,15.40
2022-08-29T23:00:20.743Z,15.30
2022-08-29T23:02:48.219Z,15.30
2022-08-29T23:05:16.898Z,15.30
2022-08-29T23:07:44.237Z,15.20
2022-08-29T23:10:11.850Z,15.20
2022-08-29T23:12:39.106Z,15.20
2022-08-29T23:15:09.195Z,15.10
2022-08-29T23:17:36.065Z,15.10
2022-08-29T23:20:04.708Z,15.10
2022-08-29T23:22:31.741Z,15.00
2022-08-29T23:24:59.235Z,15.00
2022-08-29T23:27:28.842Z,15.00
2022-08-29T23:29:56.301Z,15.00
2022-08-29T23:32:23.069Z,15.00
2022-08-29T23:34:49.893Z,14.90
2022-08-29T23:37:16.760Z,14.90
2022-08-29T23:39:43.605Z,14.90
2022-08-29T23:42:13.410Z,14.90
2022-08-29T23:44:40.227Z,14.80
2022-08-29T23:47:08.406Z,14.80
2022-08-29T23:49:35.535Z,14.80
2022-08-29T23:52:03.102Z,14.80
2022-08-29T23:54:31.570Z,14.80
2022-08-29T23:56:58.449Z,14.80
2022-08-29T23:59:44.058Z,14.80
